sensor_id;sensor_type;location;lat;lon;timestamp;pressure;altitude;pressure_sealevel;temperature;humidity
8039;BME280;4062;49.844;8.120;2023-12-20T00:01:16;99301.28;;;13.98;56.61
8039;BME280;4062;49.844;8.120;2023-12-20T00:03:17;99293.31;;;13.98;56.71
8039;BME280;4062;49.844;8.120;2023-12-20T00:05:18;99304.84;;;13.98;56.72
8039;BME280;4062;49.844;8.120;2023-12-20T00:07:19;99316.31;;;13.99;56.60
8039;BME280;4062;49.844;8.120;2023-12-20T00:09:21;99311.00;;;13.99;56.67
8039;BME280;4062;49.844;8.120;2023-12-20T00:11:22;99299.53;;;13.98;56.61
8039;BME280;4062;49.844;8.120;2023-12-20T00:13:23;99299.53;;;13.98;56.67
8039;BME280;4062;49.844;8.120;2023-12-20T00:15:24;99298.59;;;13.99;56.68
8039;BME280;4062;49.844;8.120;2023-12-20T00:17:26;99300.38;;;13.99;56.69
8039;BME280;4062;49.844;8.120;2023-12-20T00:19:27;99293.31;;;13.98;56.56
8039;BME280;4062;49.844;8.120;2023-12-20T00:21:28;99294.22;;;13.98;56.65
8039;BME280;4062;49.844;8.120;2023-12-20T00:23:30;99296.88;;;13.98;56.77
8039;BME280;4062;49.844;8.120;2023-12-20T00:25:31;99298.63;;;13.98;56.76
8039;BME280;4062;49.844;8.120;2023-12-20T00:27:32;99290.66;;;13.98;56.66
8039;BME280;4062;49.844;8.120;2023-12-20T00:29:33;99286.25;;;13.98;56.74
8039;BME280;4062;49.844;8.120;2023-12-20T00:31:35;99272.06;;;13.98;56.65
8039;BME280;4062;49.844;8.120;2023-12-20T00:33:36;99282.69;;;13.98;56.69
8039;BME280;4062;49.844;8.120;2023-12-20T00:35:38;99272.06;;;13.98;56.59
8039;BME280;4062;49.844;8.120;2023-12-20T00:37:39;99278.28;;;13.98;56.51
8039;BME280;4062;49.844;8.120;2023-12-20T00:39:40;99279.13;;;13.99;56.44
8039;BME280;4062;49.844;8.120;2023-12-20T00:41:42;99261.44;;;13.98;56.71
8039;BME280;4062;49.844;8.120;2023-12-20T00:43:43;99264.09;;;13.98;56.57
8039;BME280;4062;49.844;8.120;2023-12-20T00:45:45;99269.41;;;13.98;56.58
8039;BME280;4062;49.844;8.120;2023-12-20T00:47:46;99268.50;;;13.99;56.74
8039;BME280;4062;49.844;8.120;2023-12-20T00:49:48;99265.00;;;13.98;56.57
8039;BME280;4062;49.844;8.120;2023-12-20T00:51:49;99261.44;;;13.98;56.78
8039;BME280;4062;49.844;8.120;2023-12-20T00:53:51;99259.69;;;13.98;56.76
8039;BME280;4062;49.844;8.120;2023-12-20T00:55:55;99256.13;;;13.98;56.59
8039;BME280;4062;49.844;8.120;2023-12-20T00:57:57;99258.78;;;13.98;56.68
8039;BME280;4062;49.844;8.120;2023-12-20T01:00:00;99261.44;;;13.98;56.72
8039;BME280;4062;49.844;8.120;2023-12-20T01:02:02;99262.34;;;13.98;56.74
8039;BME280;4062;49.844;8.120;2023-12-20T01:04:03;99264.09;;;13.98;56.66
8039;BME280;4062;49.844;8.120;2023-12-20T01:06:05;99259.69;;;13.98;56.90
8039;BME280;4062;49.844;8.120;2023-12-20T01:08:06;99265.00;;;13.98;56.58
8039;BME280;4062;49.844;8.120;2023-12-20T01:10:08;99259.69;;;13.98;56.67
8039;BME280;4062;49.844;8.120;2023-12-20T01:12:09;99261.44;;;13.98;56.68
8039;BME280;4062;49.844;8.120;2023-12-20T01:14:11;99262.34;;;13.98;56.74
8039;BME280;4062;49.844;8.120;2023-12-20T01:16:45;99265.03;;;13.97;56.89
8039;BME280;4062;49.844;8.120;2023-12-20T01:18:46;99267.66;;;13.98;56.63
8039;BME280;4062;49.844;8.120;2023-12-20T01:20:47;99261.44;;;13.98;56.68
8039;BME280;4062;49.844;8.120;2023-12-20T01:22:48;99263.19;;;13.99;56.68
8039;BME280;4062;49.844;8.120;2023-12-20T01:24:50;99272.97;;;13.98;56.63
8039;BME280;4062;49.844;8.120;2023-12-20T01:26:52;99273.81;;;13.99;56.60
8039;BME280;4062;49.844;8.120;2023-12-20T01:28:53;99266.75;;;13.98;56.59
8039;BME280;4062;49.844;8.120;2023-12-20T01:30:54;99254.41;;;13.97;56.70
8039;BME280;4062;49.844;8.120;2023-12-20T01:32:56;99259.69;;;13.98;56.58
8039;BME280;4062;49.844;8.120;2023-12-20T01:34:57;99259.69;;;13.98;56.69
8039;BME280;4062;49.844;8.120;2023-12-20T01:36:58;99259.69;;;13.98;56.74
8039;BME280;4062;49.844;8.120;2023-12-20T01:38:59;99265.91;;;13.97;56.66
8039;BME280;4062;49.844;8.120;2023-12-20T01:41:01;99260.59;;;13.97;56.62
8039;BME280;4062;49.844;8.120;2023-12-20T01:43:08;99265.91;;;13.97;56.69
8039;BME280;4062;49.844;8.120;2023-12-20T01:45:10;99274.72;;;13.98;56.66
8039;BME280;4062;49.844;8.120;2023-12-20T01:47:12;99268.56;;;13.97;56.75
8039;BME280;4062;49.844;8.120;2023-12-20T01:49:14;99271.22;;;13.97;56.65
8039;BME280;4062;49.844;8.120;2023-12-20T01:51:16;99273.88;;;13.97;56.73
8039;BME280;4062;49.844;8.120;2023-12-20T01:53:20;99274.72;;;13.98;56.59
8039;BME280;4062;49.844;8.120;2023-12-20T01:55:23;99282.69;;;13.98;56.66
8039;BME280;4062;49.844;8.120;2023-12-20T01:57:25;99282.69;;;13.98;56.64
8039;BME280;4062;49.844;8.120;2023-12-20T01:59:26;99283.59;;;13.98;56.95
8039;BME280;4062;49.844;8.120;2023-12-20T02:01:30;99268.56;;;13.97;56.64
8039;BME280;4062;49.844;8.120;2023-12-20T02:03:32;99279.19;;;13.97;56.67
8039;BME280;4062;49.844;8.120;2023-12-20T02:05:34;99270.31;;;13.98;56.58
8039;BME280;4062;49.844;8.120;2023-12-20T02:07:36;99272.06;;;13.98;56.66
8039;BME280;4062;49.844;8.120;2023-12-20T02:09:37;99269.41;;;13.98;56.69
8039;BME280;4062;49.844;8.120;2023-12-20T02:11:39;99265.91;;;13.97;56.72
8039;BME280;4062;49.844;8.120;2023-12-20T02:13:41;99263.25;;;13.97;56.70
8039;BME280;4062;49.844;8.120;2023-12-20T02:15:42;99265.91;;;13.97;56.76
8039;BME280;4062;49.844;8.120;2023-12-20T02:17:46;99262.38;;;13.97;56.75
8039;BME280;4062;49.844;8.120;2023-12-20T02:19:49;99257.94;;;13.97;56.78
8039;BME280;4062;49.844;8.120;2023-12-20T02:21:50;99253.56;;;13.96;56.75
8039;BME280;4062;49.844;8.120;2023-12-20T02:23:51;99248.25;;;13.96;56.62
8039;BME280;4062;49.844;8.120;2023-12-20T02:25:53;99243.78;;;13.97;56.65
8039;BME280;4062;49.844;8.120;2023-12-20T02:27:54;99249.09;;;13.97;56.76
8039;BME280;4062;49.844;8.120;2023-12-20T02:29:56;99258.88;;;13.96;56.73
8039;BME280;4062;49.844;8.120;2023-12-20T02:31:57;99259.72;;;13.97;56.66
8039;BME280;4062;49.844;8.120;2023-12-20T02:33:58;99257.03;;;13.98;56.70
8039;BME280;4062;49.844;8.120;2023-12-20T02:36:00;99258.78;;;13.98;56.57
8039;BME280;4062;49.844;8.120;2023-12-20T02:38:01;99260.59;;;13.97;56.75
8039;BME280;4062;49.844;8.120;2023-12-20T02:40:03;99257.94;;;13.97;56.73
8039;BME280;4062;49.844;8.120;2023-12-20T02:42:05;99259.69;;;13.98;56.67
8039;BME280;4062;49.844;8.120;2023-12-20T02:44:06;99250.81;;;13.98;56.49
8039;BME280;4062;49.844;8.120;2023-12-20T02:46:08;99257.88;;;13.99;56.77
8039;BME280;4062;49.844;8.120;2023-12-20T02:48:09;99255.28;;;13.97;56.73
8039;BME280;4062;49.844;8.120;2023-12-20T02:50:10;99267.69;;;13.97;56.78
8039;BME280;4062;49.844;8.120;2023-12-20T02:52:12;99263.25;;;13.97;56.58
8039;BME280;4062;49.844;8.120;2023-12-20T02:54:13;99265.91;;;13.97;56.57
8039;BME280;4062;49.844;8.120;2023-12-20T02:56:14;99262.38;;;13.97;56.58
8039;BME280;4062;49.844;8.120;2023-12-20T02:58:16;99259.72;;;13.97;56.71
8039;BME280;4062;49.844;8.120;2023-12-20T03:00:18;99256.22;;;13.96;56.75
8039;BME280;4062;49.844;8.120;2023-12-20T03:02:20;99245.59;;;13.96;56.71
8039;BME280;4062;49.844;8.120;2023-12-20T03:04:21;99249.09;;;13.97;56.67
8039;BME280;4062;49.844;8.120;2023-12-20T03:06:23;99264.19;;;13.96;56.63
8039;BME280;4062;49.844;8.120;2023-12-20T03:08:24;99276.53;;;13.97;56.58
8039;BME280;4062;49.844;8.120;2023-12-20T03:10:25;99288.00;;;13.98;56.63
8039;BME280;4062;49.844;8.120;2023-12-20T03:12:27;99283.63;;;13.97;56.73
8039;BME280;4062;49.844;8.120;2023-12-20T03:14:28;99289.00;;;13.95;56.63
8039;BME280;4062;49.844;8.120;2023-12-20T03:16:29;99291.59;;;13.97;56.60
8039;BME280;4062;49.844;8.120;2023-12-20T03:18:32;99292.47;;;13.97;56.69
8039;BME280;4062;49.844;8.120;2023-12-20T03:20:33;99289.81;;;13.97;56.69
8039;BME280;4062;49.844;8.120;2023-12-20T03:22:35;99292.47;;;13.97;56.55
8039;BME280;4062;49.844;8.120;2023-12-20T03:24:36;99297.78;;;13.97;56.75
8039;BME280;4062;49.844;8.120;2023-12-20T03:26:37;99301.28;;;13.98;56.65
8039;BME280;4062;49.844;8.120;2023-12-20T03:28:39;99297.78;;;13.97;56.59
8039;BME280;4062;49.844;8.120;2023-12-20T03:30:40;99305.75;;;13.97;56.72
8039;BME280;4062;49.844;8.120;2023-12-20T03:32:41;99303.13;;;13.96;56.63
8039;BME280;4062;49.844;8.120;2023-12-20T03:34:42;99302.22;;;13.97;56.71
8039;BME280;4062;49.844;8.120;2023-12-20T03:36:44;99308.41;;;13.97;56.66
8039;BME280;4062;49.844;8.120;2023-12-20T03:38:48;99311.91;;;13.98;56.59
8039;BME280;4062;49.844;8.120;2023-12-20T03:40:50;99307.53;;;13.97;56.76
8039;BME280;4062;49.844;8.120;2023-12-20T03:42:51;99310.19;;;13.97;56.58
8039;BME280;4062;49.844;8.120;2023-12-20T03:44:52;99312.84;;;13.97;56.65
8039;BME280;4062;49.844;8.120;2023-12-20T03:46:54;99311.91;;;13.98;56.59
8039;BME280;4062;49.844;8.120;2023-12-20T03:48:55;99313.72;;;13.97;56.65
8039;BME280;4062;49.844;8.120;2023-12-20T03:50:57;99319.97;;;13.96;56.82
8039;BME280;4062;49.844;8.120;2023-12-20T03:52:58;99331.44;;;13.97;56.63
8039;BME280;4062;49.844;8.120;2023-12-20T03:55:00;99319.06;;;13.96;56.70
8039;BME280;4062;49.844;8.120;2023-12-20T03:57:01;99326.13;;;13.97;56.71
8039;BME280;4062;49.844;8.120;2023-12-20T03:59:02;99326.13;;;13.97;56.72
8039;BME280;4062;49.844;8.120;2023-12-20T04:01:08;99334.97;;;13.97;56.72
8039;BME280;4062;49.844;8.120;2023-12-20T04:03:10;99322.63;;;13.96;56.66
8039;BME280;4062;49.844;8.120;2023-12-20T04:05:14;99316.41;;;13.96;56.74
8039;BME280;4062;49.844;8.120;2023-12-20T04:07:15;99322.63;;;13.96;56.70
8039;BME280;4062;49.844;8.120;2023-12-20T04:09:16;99322.63;;;13.96;56.66
8039;BME280;4062;49.844;8.120;2023-12-20T04:11:18;99312.00;;;13.96;56.69
8039;BME280;4062;49.844;8.120;2023-12-20T04:13:19;99314.66;;;13.96;56.60
8039;BME280;4062;49.844;8.120;2023-12-20T04:15:20;99330.59;;;13.96;56.71
8039;BME280;4062;49.844;8.120;2023-12-20T04:17:21;99336.75;;;13.97;56.57
8039;BME280;4062;49.844;8.120;2023-12-20T04:19:23;99340.31;;;13.96;56.50
8039;BME280;4062;49.844;8.120;2023-12-20T04:21:25;99346.53;;;13.96;56.76
8039;BME280;4062;49.844;8.120;2023-12-20T04:23:26;99350.09;;;13.95;56.67
8039;BME280;4062;49.844;8.120;2023-12-20T04:25:27;99349.25;;;13.95;56.71
8039;BME280;4062;49.844;8.120;2023-12-20T04:27:29;99344.78;;;13.95;56.67
8039;BME280;4062;49.844;8.120;2023-12-20T04:29:30;99342.97;;;13.96;56.72
8039;BME280;4062;49.844;8.120;2023-12-20T04:31:31;99343.94;;;13.95;56.65
8039;BME280;4062;49.844;8.120;2023-12-20T04:33:33;99335.97;;;13.95;56.74
8039;BME280;4062;49.844;8.120;2023-12-20T04:35:34;99342.13;;;13.95;56.73
8039;BME280;4062;49.844;8.120;2023-12-20T04:37:35;99356.25;;;13.96;56.56
8039;BME280;4062;49.844;8.120;2023-12-20T04:39:36;99362.47;;;13.96;56.57
8039;BME280;4062;49.844;8.120;2023-12-20T04:41:38;99370.41;;;13.96;56.62
8039;BME280;4062;49.844;8.120;2023-12-20T04:43:39;99367.75;;;13.96;56.72
8039;BME280;4062;49.844;8.120;2023-12-20T04:45:40;99367.75;;;13.96;56.67
8039;BME280;4062;49.844;8.120;2023-12-20T04:47:42;99362.53;;;13.95;56.64
8039;BME280;4062;49.844;8.120;2023-12-20T04:49:44;99367.75;;;13.96;56.62
8039;BME280;4062;49.844;8.120;2023-12-20T04:51:45;99374.00;;;13.95;56.60
8039;BME280;4062;49.844;8.120;2023-12-20T04:53:46;99373.16;;;13.95;56.63
8039;BME280;4062;49.844;8.120;2023-12-20T04:55:47;99390.78;;;13.96;56.54
8039;BME280;4062;49.844;8.120;2023-12-20T04:57:49;99403.16;;;13.97;56.62
8039;BME280;4062;49.844;8.120;2023-12-20T04:59:50;99398.75;;;13.96;56.76
8039;BME280;4062;49.844;8.120;2023-12-20T05:01:51;99399.66;;;13.96;56.66
8039;BME280;4062;49.844;8.120;2023-12-20T05:03:54;99401.41;;;13.96;56.67
8039;BME280;4062;49.844;8.120;2023-12-20T05:05:55;99399.66;;;13.96;56.60
8039;BME280;4062;49.844;8.120;2023-12-20T05:07:56;99399.72;;;13.95;56.65
8039;BME280;4062;49.844;8.120;2023-12-20T05:09:59;99407.69;;;13.95;56.70
8039;BME280;4062;49.844;8.120;2023-12-20T05:12:00;99416.50;;;13.95;56.66
8039;BME280;4062;49.844;8.120;2023-12-20T05:14:01;99410.34;;;13.95;56.68
8039;BME280;4062;49.844;8.120;2023-12-20T05:16:03;99413.00;;;13.95;56.71
8039;BME280;4062;49.844;8.120;2023-12-20T05:18:04;99414.69;;;13.96;56.83
8039;BME280;4062;49.844;8.120;2023-12-20T05:20:06;99425.31;;;13.96;56.65
8039;BME280;4062;49.844;8.120;2023-12-20T05:22:08;99412.03;;;13.96;56.71
8039;BME280;4062;49.844;8.120;2023-12-20T05:24:09;99413.00;;;13.95;56.66
8039;BME280;4062;49.844;8.120;2023-12-20T05:26:10;99407.59;;;13.96;56.67
8039;BME280;4062;49.844;8.120;2023-12-20T05:28:12;99398.81;;;13.94;56.53
8039;BME280;4062;49.844;8.120;2023-12-20T05:30:13;99412.03;;;13.96;56.50
8039;BME280;4062;49.844;8.120;2023-12-20T05:32:15;99405.03;;;13.95;56.70
8039;BME280;4062;49.844;8.120;2023-12-20T05:34:16;99409.44;;;13.94;56.72
8039;BME280;4062;49.844;8.120;2023-12-20T05:36:19;99414.75;;;13.94;56.61
8039;BME280;4062;49.844;8.120;2023-12-20T05:38:20;99414.75;;;13.94;56.75
8039;BME280;4062;49.844;8.120;2023-12-20T05:40:22;99415.66;;;13.95;56.70
8039;BME280;4062;49.844;8.120;2023-12-20T05:42:24;99418.34;;;13.93;56.60
8039;BME280;4062;49.844;8.120;2023-12-20T05:44:25;99417.34;;;13.96;56.66
8039;BME280;4062;49.844;8.120;2023-12-20T05:46:26;99401.47;;;13.94;56.68
8039;BME280;4062;49.844;8.120;2023-12-20T05:48:28;99397.97;;;13.94;56.61
8039;BME280;4062;49.844;8.120;2023-12-20T05:50:29;99392.66;;;13.94;56.58
8039;BME280;4062;49.844;8.120;2023-12-20T05:52:31;99398.81;;;13.94;56.68
8039;BME280;4062;49.844;8.120;2023-12-20T05:54:32;99393.50;;;13.94;56.70
8039;BME280;4062;49.844;8.120;2023-12-20T05:56:33;99393.50;;;13.94;56.68
8039;BME280;4062;49.844;8.120;2023-12-20T05:58:35;99405.94;;;13.94;56.66
8039;BME280;4062;49.844;8.120;2023-12-20T06:00:36;99407.69;;;13.95;56.59
8039;BME280;4062;49.844;8.120;2023-12-20T06:02:38;99406.78;;;13.94;56.71
8039;BME280;4062;49.844;8.120;2023-12-20T06:04:42;99412.09;;;13.94;56.66
8039;BME280;4062;49.844;8.120;2023-12-20T06:06:44;99410.34;;;13.95;56.73
8039;BME280;4062;49.844;8.120;2023-12-20T06:08:46;99414.75;;;13.94;56.66
8039;BME280;4062;49.844;8.120;2023-12-20T06:10:48;99418.31;;;13.95;56.70
8039;BME280;4062;49.844;8.120;2023-12-20T06:12:49;99421.00;;;13.93;56.56
8039;BME280;4062;49.844;8.120;2023-12-20T06:14:52;99428.03;;;13.94;56.54
8039;BME280;4062;49.844;8.120;2023-12-20T06:16:53;99428.97;;;13.93;56.58
8039;BME280;4062;49.844;8.120;2023-12-20T06:18:54;99437.81;;;13.94;56.70
8039;BME280;4062;49.844;8.120;2023-12-20T06:20:56;99429.84;;;13.94;56.63
8039;BME280;4062;49.844;8.120;2023-12-20T06:22:57;99433.34;;;13.94;56.58
8039;BME280;4062;49.844;8.120;2023-12-20T06:24:59;99444.88;;;13.95;56.64
8039;BME280;4062;49.844;8.120;2023-12-20T06:27:00;99440.47;;;13.94;56.72
8039;BME280;4062;49.844;8.120;2023-12-20T06:29:02;99441.31;;;13.94;56.70
8039;BME280;4062;49.844;8.120;2023-12-20T06:31:03;99440.47;;;13.94;56.72
8039;BME280;4062;49.844;8.120;2023-12-20T06:33:05;99442.22;;;13.95;56.66
8039;BME280;4062;49.844;8.120;2023-12-20T06:35:11;99430.69;;;13.94;56.67
8039;BME280;4062;49.844;8.120;2023-12-20T06:37:12;99435.16;;;13.94;56.67
8039;BME280;4062;49.844;8.120;2023-12-20T06:39:13;99440.47;;;13.94;56.57
8039;BME280;4062;49.844;8.120;2023-12-20T06:41:16;99445.78;;;13.94;56.64
8039;BME280;4062;49.844;8.120;2023-12-20T06:43:17;99441.31;;;13.94;56.58
8039;BME280;4062;49.844;8.120;2023-12-20T06:45:19;99433.34;;;13.94;56.31
8039;BME280;4062;49.844;8.120;2023-12-20T06:47:20;99436.00;;;13.94;56.73
8039;BME280;4062;49.844;8.120;2023-12-20T06:49:22;99446.63;;;13.94;56.68
8039;BME280;4062;49.844;8.120;2023-12-20T06:51:23;99445.78;;;13.94;56.59
8039;BME280;4062;49.844;8.120;2023-12-20T06:53:26;99446.63;;;13.94;56.61
8039;BME280;4062;49.844;8.120;2023-12-20T06:55:27;99451.09;;;13.94;56.73
8039;BME280;4062;49.844;8.120;2023-12-20T06:57:30;99449.28;;;13.94;56.59
8039;BME280;4062;49.844;8.120;2023-12-20T06:59:32;99449.28;;;13.94;56.65
8039;BME280;4062;49.844;8.120;2023-12-20T07:01:33;99440.41;;;13.95;56.51
8039;BME280;4062;49.844;8.120;2023-12-20T07:03:34;99446.63;;;13.94;56.52
8039;BME280;4062;49.844;8.120;2023-12-20T07:05:36;99443.13;;;13.94;56.57
8039;BME280;4062;49.844;8.120;2023-12-20T07:07:38;99447.53;;;13.95;56.71
8039;BME280;4062;49.844;8.120;2023-12-20T07:09:40;99451.94;;;13.94;56.66
8039;BME280;4062;49.844;8.120;2023-12-20T07:11:45;99459.91;;;13.94;56.64
8039;BME280;4062;49.844;8.120;2023-12-20T07:13:47;99453.75;;;13.94;56.72
8039;BME280;4062;49.844;8.120;2023-12-20T07:15:49;99455.53;;;13.93;56.71
8039;BME280;4062;49.844;8.120;2023-12-20T07:17:51;99454.59;;;13.94;56.60
8039;BME280;4062;49.844;8.120;2023-12-20T07:19:52;99459.91;;;13.94;56.63
8039;BME280;4062;49.844;8.120;2023-12-20T07:21:55;99463.47;;;13.95;56.58
8039;BME280;4062;49.844;8.120;2023-12-20T07:23:56;99459.91;;;13.94;56.72
8039;BME280;4062;49.844;8.120;2023-12-20T07:25:58;99469.63;;;13.95;56.63
8039;BME280;4062;49.844;8.120;2023-12-20T07:27:59;99474.94;;;13.95;56.57
8039;BME280;4062;49.844;8.120;2023-12-20T07:30:01;99478.44;;;13.96;56.63
8039;BME280;4062;49.844;8.120;2023-12-20T07:32:04;99479.31;;;13.96;56.64
8039;BME280;4062;49.844;8.120;2023-12-20T07:34:05;99473.13;;;13.96;56.59
8039;BME280;4062;49.844;8.120;2023-12-20T07:36:07;99487.28;;;13.96;56.71
8039;BME280;4062;49.844;8.120;2023-12-20T07:38:08;99478.44;;;13.96;56.60
8039;BME280;4062;49.844;8.120;2023-12-20T07:40:10;99476.66;;;13.96;56.71
8039;BME280;4062;49.844;8.120;2023-12-20T07:42:12;99473.13;;;13.96;56.58
8039;BME280;4062;49.844;8.120;2023-12-20T07:44:13;99474.09;;;13.95;56.52
8039;BME280;4062;49.844;8.120;2023-12-20T07:46:14;99479.41;;;13.95;56.72
8039;BME280;4062;49.844;8.120;2023-12-20T07:48:16;99481.16;;;13.94;56.60
8039;BME280;4062;49.844;8.120;2023-12-20T07:50:17;99484.72;;;13.95;56.60
8039;BME280;4062;49.844;8.120;2023-12-20T07:52:19;99487.38;;;13.95;56.55
8039;BME280;4062;49.844;8.120;2023-12-20T07:54:20;99486.47;;;13.94;56.63
8039;BME280;4062;49.844;8.120;2023-12-20T07:56:21;99498.84;;;13.95;56.61
8039;BME280;4062;49.844;8.120;2023-12-20T07:58:23;99491.78;;;13.94;56.65
8039;BME280;4062;49.844;8.120;2023-12-20T08:00:24;99502.34;;;13.96;56.60
8039;BME280;4062;49.844;8.120;2023-12-20T08:02:25;99501.50;;;13.95;56.53
8039;BME280;4062;49.844;8.120;2023-12-20T08:04:27;99492.69;;;13.95;56.63
8039;BME280;4062;49.844;8.120;2023-12-20T08:06:28;99495.34;;;13.95;56.63
8039;BME280;4062;49.844;8.120;2023-12-20T08:08:29;99500.56;;;13.96;56.65
8039;BME280;4062;49.844;8.120;2023-12-20T08:10:31;99495.34;;;13.95;56.66
8039;BME280;4062;49.844;8.120;2023-12-20T08:12:32;99501.50;;;13.95;56.63
8039;BME280;4062;49.844;8.120;2023-12-20T08:14:34;99510.31;;;13.96;56.64
8039;BME280;4062;49.844;8.120;2023-12-20T08:16:36;99505.00;;;13.96;56.56
8039;BME280;4062;49.844;8.120;2023-12-20T08:18:37;99503.31;;;13.95;56.33
8039;BME280;4062;49.844;8.120;2023-12-20T08:20:38;99507.72;;;13.94;56.58
8039;BME280;4062;49.844;8.120;2023-12-20T08:22:40;99505.06;;;13.94;56.67
8039;BME280;4062;49.844;8.120;2023-12-20T08:24:41;99498.91;;;13.94;56.70
8039;BME280;4062;49.844;8.120;2023-12-20T08:26:42;99503.34;;;13.93;56.65
8039;BME280;4062;49.844;8.120;2023-12-20T08:28:44;99505.88;;;13.96;56.56
8039;BME280;4062;49.844;8.120;2023-12-20T08:30:45;99512.97;;;13.96;56.60
8039;BME280;4062;49.844;8.120;2023-12-20T08:32:47;99513.94;;;13.95;56.66
8039;BME280;4062;49.844;8.120;2023-12-20T08:34:48;99508.53;;;13.96;56.56
8039;BME280;4062;49.844;8.120;2023-12-20T08:36:51;99508.53;;;13.96;56.70
8039;BME280;4062;49.844;8.120;2023-12-20T08:38:53;99511.28;;;13.95;56.46
8039;BME280;4062;49.844;8.120;2023-12-20T08:40:54;99513.94;;;13.95;56.52
8039;BME280;4062;49.844;8.120;2023-12-20T08:42:55;99512.97;;;13.96;56.62
8039;BME280;4062;49.844;8.120;2023-12-20T08:44:58;99519.16;;;13.96;56.35
8039;BME280;4062;49.844;8.120;2023-12-20T08:46:59;99522.75;;;13.95;56.51
8039;BME280;4062;49.844;8.120;2023-12-20T08:49:01;99527.13;;;13.96;56.53
8039;BME280;4062;49.844;8.120;2023-12-20T08:51:02;99528.00;;;13.97;56.59
8039;BME280;4062;49.844;8.120;2023-12-20T08:53:04;99527.13;;;13.96;56.63
8039;BME280;4062;49.844;8.120;2023-12-20T08:55:06;99523.59;;;13.96;56.65
8039;BME280;4062;49.844;8.120;2023-12-20T08:57:07;99525.41;;;13.95;56.61
8039;BME280;4062;49.844;8.120;2023-12-20T08:59:09;99519.16;;;13.96;56.59
8039;BME280;4062;49.844;8.120;2023-12-20T09:01:10;99520.09;;;13.95;56.54
8039;BME280;4062;49.844;8.120;2023-12-20T09:03:12;99524.47;;;13.96;56.55
8039;BME280;4062;49.844;8.120;2023-12-20T09:05:14;99514.78;;;13.95;56.50
8039;BME280;4062;49.844;8.120;2023-12-20T09:07:23;99527.13;;;13.96;56.56
8039;BME280;4062;49.844;8.120;2023-12-20T09:09:24;99533.38;;;13.95;56.60
8039;BME280;4062;49.844;8.120;2023-12-20T09:11:25;99528.91;;;13.96;56.54
8039;BME280;4062;49.844;8.120;2023-12-20T09:13:27;99528.97;;;13.94;56.68
8039;BME280;4062;49.844;8.120;2023-12-20T09:15:29;99525.41;;;13.95;56.56
8039;BME280;4062;49.844;8.120;2023-12-20T09:17:31;99526.25;;;13.96;56.49
8039;BME280;4062;49.844;8.120;2023-12-20T09:19:32;99534.22;;;13.96;56.57
8039;BME280;4062;49.844;8.120;2023-12-20T09:21:33;99527.13;;;13.96;56.55
8039;BME280;4062;49.844;8.120;2023-12-20T09:23:35;99524.47;;;13.96;56.56
8039;BME280;4062;49.844;8.120;2023-12-20T09:25:37;99532.47;;;13.96;56.57
8039;BME280;4062;49.844;8.120;2023-12-20T09:27:39;99532.47;;;13.96;56.51
8039;BME280;4062;49.844;8.120;2023-12-20T09:29:40;99528.91;;;13.96;56.47
8039;BME280;4062;49.844;8.120;2023-12-20T09:31:42;99529.78;;;13.96;56.62
8039;BME280;4062;49.844;8.120;2023-12-20T09:33:44;99528.00;;;13.97;56.57
8039;BME280;4062;49.844;8.120;2023-12-20T09:35:46;99518.28;;;13.96;56.60
8039;BME280;4062;49.844;8.120;2023-12-20T09:37:48;99520.03;;;13.97;56.58
8039;BME280;4062;49.844;8.120;2023-12-20T09:39:50;99524.47;;;13.96;56.62
8039;BME280;4062;49.844;8.120;2023-12-20T09:42:01;99527.13;;;13.96;56.59
8039;BME280;4062;49.844;8.120;2023-12-20T09:44:03;99515.63;;;13.96;56.54
8039;BME280;4062;49.844;8.120;2023-12-20T09:46:06;99515.63;;;13.96;56.57
8039;BME280;4062;49.844;8.120;2023-12-20T09:48:10;99528.91;;;13.96;56.57
8039;BME280;4062;49.844;8.120;2023-12-20T09:50:12;99526.25;;;13.96;56.45
8039;BME280;4062;49.844;8.120;2023-12-20T09:52:14;99515.63;;;13.96;56.58
8039;BME280;4062;49.844;8.120;2023-12-20T09:54:21;99524.47;;;13.96;56.55
8039;BME280;4062;49.844;8.120;2023-12-20T09:56:24;99524.47;;;13.96;56.55
8039;BME280;4062;49.844;8.120;2023-12-20T09:58:26;99511.19;;;13.96;56.69
8039;BME280;4062;49.844;8.120;2023-12-20T10:00:28;99514.72;;;13.97;56.63
8039;BME280;4062;49.844;8.120;2023-12-20T10:02:30;99513.84;;;13.96;56.56
8039;BME280;4062;49.844;8.120;2023-12-20T10:04:34;99512.97;;;13.96;56.51
8039;BME280;4062;49.844;8.120;2023-12-20T10:06:40;99516.50;;;13.96;56.63
8039;BME280;4062;49.844;8.120;2023-12-20T10:08:41;99520.03;;;13.97;56.50
8039;BME280;4062;49.844;8.120;2023-12-20T10:10:42;99510.31;;;13.96;56.58
8039;BME280;4062;49.844;8.120;2023-12-20T10:13:05;99524.47;;;13.96;56.48
8039;BME280;4062;49.844;8.120;2023-12-20T10:15:07;99513.84;;;13.96;56.69
8039;BME280;4062;49.844;8.120;2023-12-20T10:17:08;99510.31;;;13.96;56.64
8039;BME280;4062;49.844;8.120;2023-12-20T10:19:09;99507.66;;;13.96;56.59
8039;BME280;4062;49.844;8.120;2023-12-20T10:21:11;99514.72;;;13.97;56.50
8039;BME280;4062;49.844;8.120;2023-12-20T10:23:13;99515.63;;;13.96;56.70
8039;BME280;4062;49.844;8.120;2023-12-20T10:25:15;99518.25;;;13.97;56.56
8039;BME280;4062;49.844;8.120;2023-12-20T10:27:18;99508.53;;;13.96;56.52
8039;BME280;4062;49.844;8.120;2023-12-20T10:29:24;99505.88;;;13.96;56.62
8039;BME280;4062;49.844;8.120;2023-12-20T10:33:31;99487.28;;;13.96;56.55
8039;BME280;4062;49.844;8.120;2023-12-20T10:35:37;99487.28;;;13.96;56.69
8039;BME280;4062;49.844;8.120;2023-12-20T10:37:38;99475.78;;;13.96;56.56
8039;BME280;4062;49.844;8.120;2023-12-20T10:39:41;99472.22;;;13.97;56.62
8039;BME280;4062;49.844;8.120;2023-12-20T10:41:44;99474.00;;;13.96;56.60
8039;BME280;4062;49.844;8.120;2023-12-20T10:43:47;99479.31;;;13.96;56.48
8039;BME280;4062;49.844;8.120;2023-12-20T10:45:49;99476.66;;;13.96;56.48
8039;BME280;4062;49.844;8.120;2023-12-20T10:47:50;99482.84;;;13.97;56.70
8039;BME280;4062;49.844;8.120;2023-12-20T10:49:52;99487.28;;;13.96;56.55
8039;BME280;4062;49.844;8.120;2023-12-20T10:51:55;99479.31;;;13.96;56.52
8039;BME280;4062;49.844;8.120;2023-12-20T10:53:58;99467.78;;;13.97;56.57
8039;BME280;4062;49.844;8.120;2023-12-20T10:56:02;99463.38;;;13.96;56.65
8039;BME280;4062;49.844;8.120;2023-12-20T10:58:08;99455.41;;;13.96;56.69
8039;BME280;4062;49.844;8.120;2023-12-20T11:00:13;99449.22;;;13.96;56.59
8039;BME280;4062;49.844;8.120;2023-12-20T11:02:15;99461.59;;;13.97;56.45
8039;BME280;4062;49.844;8.120;2023-12-20T11:04:25;99464.25;;;13.97;56.59
8039;BME280;4062;49.844;8.120;2023-12-20T11:06:52;99461.59;;;13.97;56.62